Time;durP1;ratioP1;P1;durP2;ratioP2;P2;SDS_P1;SDS_P2;PMS_P1;PMS_P2;Temp;Humidity;BMP_temperature;BMP_pressure;BME280_temperature;BME280_humidity;BME280_pressure;Samples;Min_cycle;Max_cycle;Signal;HPM_P1;HPM_P2
2021/12/29 00:02:22;;;;;;;4.13;1.30;;;11.50;99.90;;;;;;5074568;28;20215;-62
2021/12/29 00:04:49;;;;;;;3.30;1.30;;;11.60;99.90;;;;;;5074689;28;20251;-62
2021/12/29 00:07:16;;;;;;;4.43;1.10;;;11.60;99.90;;;;;;5073538;28;20770;-62
2021/12/29 00:09:42;;;;;;;3.03;1.13;;;11.60;99.90;;;;;;5074009;28;20208;-62
2021/12/29 00:12:11;;;;;;;4.77;1.43;;;11.60;99.90;;;;;;5073701;28;20217;-62
2021/12/29 00:14:38;;;;;;;2.87;1.23;;;11.70;99.90;;;;;;5073944;28;20209;-62
2021/12/29 00:17:05;;;;;;;3.80;1.10;;;11.60;99.90;;;;;;5073159;28;20611;-63
2021/12/29 00:19:32;;;;;;;2.80;1.10;;;11.50;99.90;;;;;;5073460;28;20680;-62
2021/12/29 00:21:59;;;;;;;4.97;1.37;;;11.50;99.90;;;;;;5073872;28;20204;-62
2021/12/29 00:24:25;;;;;;;5.10;1.50;;;11.50;99.90;;;;;;5073481;28;20232;-62
2021/12/29 00:26:52;;;;;;;4.20;1.30;;;11.50;99.90;;;;;;5073418;28;20700;-62
2021/12/29 00:29:20;;;;;;;4.10;1.33;;;11.50;99.90;;;;;;5073438;28;20567;-62
2021/12/29 00:31:47;;;;;;;4.13;1.23;;;11.50;99.90;;;;;;5073454;28;20212;-62
2021/12/29 00:34:14;;;;;;;5.97;1.50;;;11.60;99.90;;;;;;5073438;28;20201;-62
2021/12/29 00:36:40;;;;;;;3.77;1.30;;;11.50;99.90;;;;;;5073187;28;20681;-62
2021/12/29 00:39:07;;;;;;;5.47;1.30;;;11.40;99.90;;;;;;5072863;28;20282;-62
2021/12/29 00:41:34;;;;;;;11.43;4.73;;;11.40;99.90;;;;;;5073611;28;20684;-62
2021/12/29 00:44:01;;;;;;;4.97;1.57;;;11.50;99.90;;;;;;5073247;28;20200;-62
2021/12/29 00:46:29;;;;;;;3.17;1.07;;;11.50;99.90;;;;;;5073362;28;20215;-62
2021/12/29 00:48:56;;;;;;;3.63;1.20;;;11.60;99.90;;;;;;5072436;28;20739;-62
2021/12/29 00:51:23;;;;;;;6.33;1.17;;;11.60;99.90;;;;;;5073178;28;20210;-62
2021/12/29 00:53:50;;;;;;;3.60;0.90;;;11.70;99.90;;;;;;5072897;28;20228;-62
2021/12/29 00:56:16;;;;;;;5.80;1.20;;;11.70;99.90;;;;;;5073285;28;20209;-63
2021/12/29 00:58:44;;;;;;;2.93;1.03;;;11.70;99.90;;;;;;5072851;28;20227;-62
2021/12/29 01:01:11;;;;;;;3.07;1.03;;;11.70;99.90;;;;;;5072928;28;20734;-62
2021/12/29 01:03:39;;;;;;;3.57;1.23;;;11.70;99.90;;;;;;5073409;28;20243;-63
2021/12/29 01:06:06;;;;;;;2.27;1.03;;;11.60;99.90;;;;;;5072632;28;20212;-62
2021/12/29 01:08:33;;;;;;;2.97;0.90;;;11.60;99.90;;;;;;5072818;28;20235;-62
2021/12/29 01:10:59;;;;;;;5.57;1.53;;;11.70;99.90;;;;;;5073413;28;20220;-62
2021/12/29 01:13:30;;;;;;;2.93;1.20;;;11.70;99.90;;;;;;5072603;28;20231;-62
2021/12/29 01:16:09;;;;;;;3.10;0.90;;;11.70;99.90;;;;;;5072821;28;20205;-63
2021/12/29 01:18:37;;;;;;;6.77;1.00;;;11.60;99.90;;;;;;5072454;28;20228;-63
2021/12/29 01:21:06;;;;;;;5.73;1.20;;;11.70;99.90;;;;;;5072448;28;20699;-62
2021/12/29 01:23:33;;;;;;;3.40;1.03;;;11.60;99.90;;;;;;5072705;28;20205;-63
2021/12/29 01:26:00;;;;;;;4.27;0.90;;;11.60;99.90;;;;;;5072534;28;20578;-63
2021/12/29 01:28:26;;;;;;;4.13;1.20;;;11.60;99.90;;;;;;5072920;28;20228;-62
2021/12/29 01:30:54;;;;;;;2.43;0.83;;;11.70;99.90;;;;;;5072475;28;20280;-62
2021/12/29 01:33:22;;;;;;;3.27;1.03;;;11.60;99.90;;;;;;5072180;28;20240;-62
2021/12/29 01:35:49;;;;;;;2.53;0.90;;;11.60;99.90;;;;;;5072384;28;20212;-62
2021/12/29 01:38:17;;;;;;;3.13;0.90;;;11.60;99.90;;;;;;5072684;28;20515;-63
2021/12/29 01:40:48;;;;;;;3.00;0.87;;;11.60;99.90;;;;;;5072639;28;20861;-63
2021/12/29 01:43:16;;;;;;;3.70;0.93;;;11.60;99.90;;;;;;5072765;28;20278;-63
2021/12/29 01:45:42;;;;;;;2.57;0.80;;;11.60;99.90;;;;;;5072092;28;20215;-63
2021/12/29 01:48:09;;;;;;;3.13;1.00;;;11.60;99.90;;;;;;5071862;28;20730;-63
2021/12/29 01:50:38;;;;;;;2.37;0.73;;;11.60;99.90;;;;;;5072446;28;20205;-63
2021/12/29 01:53:09;;;;;;;4.77;1.10;;;11.60;99.90;;;;;;5072114;28;20250;-63
2021/12/29 01:55:37;;;;;;;2.27;1.00;;;11.50;99.90;;;;;;5072357;28;20228;-63
2021/12/29 01:58:04;;;;;;;3.60;0.87;;;11.60;99.90;;;;;;5071734;28;20225;-63
2021/12/29 02:00:35;;;;;;;2.07;0.73;;;11.50;99.90;;;;;;5071297;28;20612;-63
2021/12/29 02:03:02;;;;;;;3.10;1.00;;;11.50;99.90;;;;;;5073054;28;20602;-62
2021/12/29 02:05:28;;;;;;;2.97;0.87;;;11.40;99.90;;;;;;5072181;28;20211;-63
2021/12/29 02:07:55;;;;;;;2.93;0.87;;;11.40;99.90;;;;;;5071673;28;20228;-63
2021/12/29 02:10:24;;;;;;;3.40;1.10;;;11.40;99.90;;;;;;5072198;28;20209;-63
2021/12/29 02:12:52;;;;;;;2.13;0.90;;;11.40;99.90;;;;;;5072164;28;20224;-63
2021/12/29 02:15:19;;;;;;;3.23;1.03;;;11.50;99.90;;;;;;5072214;28;20205;-63
2021/12/29 02:17:49;;;;;;;3.37;0.90;;;11.60;99.90;;;;;;5071787;28;20221;-63
2021/12/29 02:20:20;;;;;;;2.63;0.80;;;11.60;99.90;;;;;;5072175;28;20254;-63
2021/12/29 02:22:52;;;;;;;1.13;0.50;;;11.60;99.90;;;;;;5072139;28;20228;-63
2021/12/29 02:25:34;;;;;;;3.53;1.00;;;11.60;99.90;;;;;;5071816;28;20695;-63
2021/12/29 02:28:02;;;;;;;2.50;0.67;;;11.60;99.90;;;;;;5071711;28;20256;-63
2021/12/29 02:30:29;;;;;;;1.83;0.60;;;11.60;99.90;;;;;;5072159;28;20316;-63
2021/12/29 02:33:00;;;;;;;2.80;1.00;;;11.60;99.90;;;;;;5071758;28;20221;-63
2021/12/29 02:35:29;;;;;;;2.17;0.90;;;11.50;99.90;;;;;;5072280;28;20212;-63
2021/12/29 02:37:57;;;;;;;1.40;0.43;;;11.50;99.90;;;;;;5071641;28;20229;-63
2021/12/29 02:40:23;;;;;;;2.10;0.50;;;11.50;99.90;;;;;;5072185;28;20312;-63
2021/12/29 02:42:50;;;;;;;1.80;0.60;;;11.50;99.90;;;;;;5071937;28;20205;-63
2021/12/29 02:45:21;;;;;;;1.80;1.00;;;11.50;99.90;;;;;;5071886;28;20205;-63
2021/12/29 02:47:48;;;;;;;2.07;0.57;;;11.50;99.90;;;;;;5071357;28;20316;-63
2021/12/29 02:50:17;;;;;;;1.37;0.50;;;11.60;99.90;;;;;;5071427;28;20559;-63
2021/12/29 02:52:47;;;;;;;1.30;0.60;;;11.70;99.90;;;;;;5071813;28;20220;-63
2021/12/29 02:55:14;;;;;;;2.67;0.80;;;11.60;99.90;;;;;;5071723;28;20221;-63
2021/12/29 02:57:41;;;;;;;2.93;0.97;;;11.60;99.90;;;;;;5071357;28;20225;-63
2021/12/29 03:00:12;;;;;;;2.60;0.63;;;11.60;99.90;;;;;;5071426;28;20692;-63
2021/12/29 03:02:39;;;;;;;2.43;0.63;;;11.70;99.90;;;;;;5071912;28;20205;-63
2021/12/29 03:05:07;;;;;;;3.43;0.80;;;11.70;99.90;;;;;;5071660;28;20209;-63
2021/12/29 03:07:33;;;;;;;1.73;0.70;;;11.60;99.90;;;;;;5071360;28;20251;-63
2021/12/29 03:10:01;;;;;;;1.60;0.63;;;11.50;99.90;;;;;;5071676;28;20205;-63
2021/12/29 03:12:28;;;;;;;1.37;0.73;;;11.50;99.90;;;;;;5073572;28;20209;-63
2021/12/29 03:14:58;;;;;;;1.90;0.70;;;11.50;99.90;;;;;;5075260;28;20229;-63
2021/12/29 03:17:24;;;;;;;3.03;1.00;;;11.50;99.90;;;;;;5074704;28;20286;-63
2021/12/29 03:19:51;;;;;;;3.00;0.83;;;11.40;99.90;;;;;;5074655;28;20677;-63
2021/12/29 03:22:18;;;;;;;2.17;1.00;;;11.30;99.90;;;;;;5074953;28;20212;-63
2021/12/29 03:24:45;;;;;;;1.73;0.80;;;11.20;99.90;;;;;;5074944;28;20275;-63
2021/12/29 03:27:13;;;;;;;5.50;0.87;;;11.10;99.90;;;;;;5074859;28;20228;-63
2021/12/29 03:29:40;;;;;;;2.70;0.80;;;11.20;99.90;;;;;;5074321;28;20676;-62
2021/12/29 03:32:09;;;;;;;3.73;1.00;;;11.20;99.90;;;;;;5074767;28;20204;-63
2021/12/29 03:34:36;;;;;;;1.77;0.70;;;11.20;99.90;;;;;;5074703;28;20323;-63
2021/12/29 03:37:03;;;;;;;3.17;0.77;;;11.20;99.90;;;;;;5074384;28;20216;-63
2021/12/29 03:39:37;;;;;;;1.43;0.70;;;11.10;99.90;;;;;;5074494;28;20205;-61
2021/12/29 03:42:04;;;;;;;3.27;0.80;;;11.10;99.90;;;;;;5074797;28;20669;-63
2021/12/29 03:44:32;;;;;;;2.33;0.80;;;11.20;99.90;;;;;;5074454;28;20205;-63
2021/12/29 03:46:59;;;;;;;3.50;0.80;;;11.20;99.90;;;;;;5074336;28;20262;-63
2021/12/29 03:49:26;;;;;;;4.17;0.90;;;11.20;99.90;;;;;;5074293;28;20205;-63
2021/12/29 03:51:53;;;;;;;3.83;0.77;;;11.20;99.90;;;;;;5074337;28;20209;-63
2021/12/29 03:54:19;;;;;;;2.30;0.83;;;11.20;99.90;;;;;;5074230;28;20233;-63
2021/12/29 03:56:46;;;;;;;2.80;0.97;;;11.20;99.90;;;;;;5074771;28;20262;-63
2021/12/29 03:59:13;;;;;;;1.80;0.80;;;11.30;99.90;;;;;;5074182;28;20205;-63
2021/12/29 04:01:41;;;;;;;2.73;1.10;;;11.20;99.90;;;;;;5074426;28;20251;-63
2021/12/29 04:04:07;;;;;;;1.67;0.70;;;11.20;99.90;;;;;;5074487;28;20205;-63
2021/12/29 04:06:34;;;;;;;3.67;1.30;;;11.30;99.90;;;;;;5074154;28;20209;-63
2021/12/29 04:09:01;;;;;;;3.00;0.80;;;11.30;99.90;;;;;;5073953;28;20228;-63
2021/12/29 04:11:27;;;;;;;2.67;0.97;;;11.30;99.90;;;;;;5074579;28;20212;-63
2021/12/29 04:13:54;;;;;;;2.80;0.60;;;11.30;99.90;;;;;;5074060;28;20233;-63
2021/12/29 04:16:21;;;;;;;1.63;0.60;;;11.30;99.90;;;;;;5074161;28;20205;-62
2021/12/29 04:19:14;;;;;;;1.57;0.60;;;11.40;99.90;;;;;;5073812;28;20220;-63
2021/12/29 04:21:43;;;;;;;1.50;0.60;;;11.30;99.90;;;;;;5073986;28;20201;-62
2021/12/29 04:24:10;;;;;;;3.53;1.13;;;11.30;99.90;;;;;;5073076;28;20621;-62
2021/12/29 04:26:38;;;;;;;1.37;0.40;;;11.40;99.90;;;;;;5073950;28;20212;-62
2021/12/29 04:29:06;;;;;;;2.37;0.53;;;11.40;99.90;;;;;;5073409;28;20243;-62
2021/12/29 04:31:33;;;;;;;2.13;0.80;;;11.40;99.90;;;;;;5073636;28;20208;-62
2021/12/29 04:34:01;;;;;;;2.20;0.70;;;11.40;99.90;;;;;;5073689;28;20283;-62
2021/12/29 04:36:28;;;;;;;0.83;0.40;;;11.40;99.90;;;;;;5073934;28;20231;-62
2021/12/29 04:38:57;;;;;;;0.87;0.30;;;11.40;99.90;;;;;;5073420;28;20241;-62
2021/12/29 04:41:24;;;;;;;0.80;0.40;;;11.30;99.90;;;;;;5074194;28;20590;-62
2021/12/29 04:43:50;;;;;;;1.27;0.60;;;11.30;99.90;;;;;;5073763;28;20204;-63
2021/12/29 04:46:19;;;;;;;1.70;0.40;;;11.30;99.90;;;;;;5073568;28;20201;-63
2021/12/29 04:48:50;;;;;;;0.60;0.30;;;11.30;99.90;;;;;;5073182;28;20732;-63
2021/12/29 04:51:24;;;;;;;1.00;0.40;;;11.30;99.90;;;;;;5073187;28;20205;-62
2021/12/29 04:53:51;;;;;;;0.70;0.50;;;11.30;99.90;;;;;;5073534;28;20253;-62
2021/12/29 04:56:18;;;;;;;1.20;0.37;;;11.40;99.90;;;;;;5073530;28;20251;-62
2021/12/29 04:58:45;;;;;;;1.17;0.40;;;11.40;99.90;;;;;;5072952;28;20221;-62
2021/12/29 05:01:11;;;;;;;1.43;0.30;;;11.40;99.90;;;;;;5073047;28;20672;-63
2021/12/29 05:03:40;;;;;;;2.20;0.57;;;11.50;99.90;;;;;;5073679;28;20648;-62
2021/12/29 05:08:53;;;;;;;0.77;0.40;;;11.60;99.90;;;;;;5072830;28;20223;-62
2021/12/29 05:11:20;;;;;;;0.23;0.20;;;11.60;99.90;;;;;;5073673;28;20208;-62
2021/12/29 05:13:46;;;;;;;0.53;0.23;;;11.60;99.90;;;;;;5072778;28;20224;-62
2021/12/29 05:16:13;;;;;;;1.40;0.30;;;11.60;99.90;;;;;;5072856;28;20216;-63
2021/12/29 05:18:40;;;;;;;1.03;0.50;;;11.50;99.90;;;;;;5072724;28;20232;-62
2021/12/29 05:21:08;;;;;;;1.30;0.40;;;11.40;99.90;;;;;;5072890;28;20216;-62
2021/12/29 05:23:35;;;;;;;0.30;0.20;;;11.40;99.90;;;;;;5072910;28;20626;-63
2021/12/29 05:26:04;;;;;;;0.97;0.30;;;11.40;99.90;;;;;;5073015;28;20270;-62
2021/12/29 05:28:32;;;;;;;1.37;0.50;;;11.40;99.90;;;;;;5072414;28;20236;-62
2021/12/29 05:30:58;;;;;;;0.63;0.30;;;11.50;99.90;;;;;;5072848;28;20211;-62
2021/12/29 05:33:25;;;;;;;0.60;0.57;;;11.50;99.90;;;;;;5072730;28;20212;-62
2021/12/29 05:35:52;;;;;;;1.30;0.50;;;11.40;99.90;;;;;;5072737;28;20208;-62
2021/12/29 05:38:19;;;;;;;0.70;0.60;;;11.40;99.90;;;;;;5072365;28;20229;-63
2021/12/29 05:40:48;;;;;;;0.90;0.37;;;11.40;99.90;;;;;;5073194;28;20239;-63
2021/12/29 05:43:16;;;;;;;0.73;0.43;;;11.50;99.90;;;;;;5073051;28;20209;-63
2021/12/29 05:45:43;;;;;;;0.60;0.50;;;11.50;99.90;;;;;;5073185;28;20281;-63
2021/12/29 05:48:10;;;;;;;0.63;0.43;;;11.50;99.90;;;;;;5072245;28;20225;-63
2021/12/29 05:50:37;;;;;;;0.80;0.37;;;11.40;99.90;;;;;;5072460;28;20216;-63
2021/12/29 05:53:04;;;;;;;0.77;0.37;;;11.40;99.90;;;;;;5072451;28;20204;-62
2021/12/29 05:55:31;;;;;;;1.37;0.60;;;11.30;99.90;;;;;;5072168;28;20232;-63
2021/12/29 05:57:58;;;;;;;2.30;0.70;;;11.20;99.90;;;;;;5071859;28;20225;-63
2021/12/29 06:00:27;;;;;;;0.67;0.30;;;11.10;99.90;;;;;;5072255;28;20209;-62
2021/12/29 06:02:55;;;;;;;0.90;0.47;;;10.90;99.90;;;;;;5072300;28;20232;-63
2021/12/29 06:05:23;;;;;;;3.70;0.70;;;10.80;99.90;;;;;;5072152;28;20196;-63
2021/12/29 06:07:50;;;;;;;1.33;0.73;;;10.80;99.90;;;;;;5071791;28;20229;-62
2021/12/29 06:10:16;;;;;;;2.80;0.60;;;10.80;99.90;;;;;;5072108;28;20212;-62
2021/12/29 06:12:43;;;;;;;1.70;0.90;;;10.90;99.90;;;;;;5072497;28;20212;-63
2021/12/29 06:15:11;;;;;;;1.70;0.60;;;10.90;99.90;;;;;;5071926;28;20225;-63
2021/12/29 06:17:39;;;;;;;2.73;1.10;;;10.90;99.90;;;;;;5071781;28;20225;-63
2021/12/29 06:20:09;;;;;;;0.63;0.50;;;11.00;99.90;;;;;;5071838;28;20250;-63
2021/12/29 06:22:36;;;;;;;1.90;0.90;;;10.90;99.90;;;;;;5071754;28;20259;-63
2021/12/29 06:25:04;;;;;;;1.17;0.67;;;10.90;99.90;;;;;;5071812;28;20201;-63
2021/12/29 06:27:31;;;;;;;1.73;0.60;;;10.90;99.90;;;;;;5071592;28;20708;-62
2021/12/29 06:29:58;;;;;;;4.30;2.23;;;11.00;99.90;;;;;;5071496;28;20232;-62
2021/12/29 06:32:25;;;;;;;1.50;0.70;;;11.00;99.90;;;;;;5071756;28;20231;-62
2021/12/29 06:34:54;;;;;;;2.50;1.23;;;11.10;99.90;;;;;;5071734;28;20224;-62
2021/12/29 06:37:21;;;;;;;3.00;1.17;;;11.10;99.90;;;;;;5071497;28;20239;-62
2021/12/29 06:39:48;;;;;;;1.67;0.90;;;11.10;99.90;;;;;;5071682;28;20588;-62
2021/12/29 06:42:16;;;;;;;2.60;1.43;;;11.20;99.90;;;;;;5072084;28;20210;-62
2021/12/29 06:44:44;;;;;;;2.63;1.23;;;11.20;99.90;;;;;;5071727;28;20691;-62
2021/12/29 06:47:11;;;;;;;4.10;2.90;;;11.30;99.90;;;;;;5072595;28;20224;-62
2021/12/29 06:49:38;;;;;;;3.43;1.10;;;11.30;99.90;;;;;;5075436;28;20254;-62
2021/12/29 06:52:09;;;;;;;1.30;0.90;;;11.30;99.90;;;;;;5075385;28;20258;-62
2021/12/29 06:54:36;;;;;;;2.17;1.10;;;11.30;99.90;;;;;;5075492;28;20229;-62
2021/12/29 06:57:04;;;;;;;3.90;1.17;;;11.40;99.90;;;;;;5075435;28;20213;-62
2021/12/29 06:59:31;;;;;;;3.70;1.27;;;11.40;99.90;;;;;;5075236;28;20214;-62
2021/12/29 07:01:58;;;;;;;2.40;1.47;;;11.40;99.90;;;;;;5075309;28;20201;-62
2021/12/29 07:04:24;;;;;;;3.17;1.47;;;11.40;99.90;;;;;;5075122;28;20204;-63
2021/12/29 07:06:51;;;;;;;4.90;2.30;;;11.40;99.90;;;;;;5074998;28;20262;-62
2021/12/29 07:09:20;;;;;;;4.40;1.80;;;11.40;99.90;;;;;;5074891;28;20726;-62
2021/12/29 07:11:47;;;;;;;7.67;3.73;;;11.40;99.90;;;;;;5075585;28;20232;-62
2021/12/29 07:14:14;;;;;;;3.03;1.27;;;11.40;99.90;;;;;;5075251;28;20427;-62
2021/12/29 07:16:44;;;;;;;3.53;1.13;;;11.50;99.90;;;;;;5075146;28;20216;-62
2021/12/29 07:19:11;;;;;;;1.93;1.20;;;11.50;99.90;;;;;;5074684;28;20224;-62
2021/12/29 07:21:38;;;;;;;1.87;1.07;;;11.40;99.90;;;;;;5075238;28;20201;-62
2021/12/29 07:24:06;;;;;;;3.20;1.20;;;11.40;99.90;;;;;;5075553;28;20201;-61
2021/12/29 07:26:35;;;;;;;2.53;1.00;;;11.40;99.90;;;;;;5074910;28;20209;-62
2021/12/29 07:29:02;;;;;;;5.53;1.40;;;11.40;99.90;;;;;;5074562;28;20225;-63
2021/12/29 07:31:29;;;;;;;2.43;1.00;;;11.30;99.90;;;;;;5074898;28;20209;-63
2021/12/29 07:33:56;;;;;;;2.20;0.90;;;11.30;99.90;;;;;;5076300;28;20235;-63
2021/12/29 07:36:23;;;;;;;2.70;0.93;;;11.30;99.90;;;;;;5075470;28;20708;-62
2021/12/29 07:38:50;;;;;;;4.47;1.73;;;11.20;99.90;;;;;;5075059;28;20233;-62
2021/12/29 07:41:17;;;;;;;4.17;1.30;;;11.20;99.90;;;;;;5074967;28;20266;-61
2021/12/29 07:43:45;;;;;;;4.50;2.33;;;11.20;99.90;;;;;;5074366;28;20669;-62
2021/12/29 07:46:13;;;;;;;7.13;1.23;;;11.20;99.90;;;;;;5074221;28;20567;-61
2021/12/29 07:48:40;;;;;;;3.67;1.50;;;11.20;99.90;;;;;;5074723;28;20225;-62
2021/12/29 07:51:08;;;;;;;1.77;0.83;;;11.30;99.90;;;;;;5074463;28;20231;-63
2021/12/29 07:53:37;;;;;;;3.17;1.00;;;11.40;99.90;;;;;;5074294;28;20208;-63
2021/12/29 07:56:06;;;;;;;2.60;0.87;;;11.40;99.90;;;;;;5074239;28;20320;-63
2021/12/29 07:58:33;;;;;;;2.87;1.00;;;11.40;99.90;;;;;;5072902;28;20221;-62
2021/12/29 08:01:01;;;;;;;3.97;1.53;;;11.50;99.90;;;;;;5074491;28;20216;-63
2021/12/29 08:03:28;;;;;;;2.30;0.90;;;11.40;99.90;;;;;;5074398;28;20213;-62
2021/12/29 08:05:55;;;;;;;3.47;1.43;;;11.40;99.90;;;;;;5074192;28;20262;-62
2021/12/29 08:08:22;;;;;;;3.80;1.03;;;11.50;99.90;;;;;;5073794;28;20282;-61
2021/12/29 08:10:49;;;;;;;2.80;1.10;;;11.50;99.90;;;;;;5074125;28;20208;-62
2021/12/29 08:13:16;;;;;;;3.93;1.30;;;11.50;99.90;;;;;;5073500;28;20213;-61
2021/12/29 08:15:42;;;;;;;3.83;1.10;;;11.50;99.90;;;;;;5074598;28;20233;-62
2021/12/29 08:18:10;;;;;;;6.27;3.07;;;11.60;99.90;;;;;;5074794;28;20237;-62
2021/12/29 08:20:37;;;;;;;6.70;1.30;;;11.60;99.90;;;;;;5074692;28;20205;-65
2021/12/29 08:23:04;;;;;;;4.50;1.90;;;11.70;99.90;;;;;;5074678;28;20221;-63
2021/12/29 08:25:31;;;;;;;6.73;1.30;;;11.70;99.90;;;;;;5074415;28;20205;-63
2021/12/29 08:27:58;;;;;;;4.53;1.40;;;11.70;99.90;;;;;;5073737;28;20759;-63
2021/12/29 08:30:26;;;;;;;4.40;1.57;;;11.70;99.90;;;;;;5074074;28;20266;-64
2021/12/29 08:32:53;;;;;;;3.20;1.10;;;11.70;99.90;;;;;;5073911;28;20687;-62
2021/12/29 08:35:21;;;;;;;2.83;1.30;;;11.80;99.90;;;;;;5073692;28;20224;-63
2021/12/29 08:37:49;;;;;;;3.80;1.93;;;11.90;99.90;;;;;;5073086;28;20240;-63
2021/12/29 08:40:16;;;;;;;5.87;2.47;;;12.10;99.90;;;;;;5073659;28;20606;-63
2021/12/29 08:42:45;;;;;;;8.87;6.13;;;12.10;99.90;;;;;;5073793;28;20213;-63
2021/12/29 08:45:14;;;;;;;3.57;1.20;;;12.20;99.90;;;;;;5073319;28;20574;-63
2021/12/29 08:47:41;;;;;;;2.47;1.30;;;12.30;99.90;;;;;;5073273;28;20282;-62
2021/12/29 08:50:11;;;;;;;5.20;1.27;;;12.40;99.90;;;;;;5073007;28;20216;-63
2021/12/29 08:52:39;;;;;;;2.63;1.27;;;12.50;99.90;;;;;;5073284;28;20232;-63
2021/12/29 08:55:09;;;;;;;3.63;1.20;;;12.50;99.90;;;;;;5073152;28;20282;-63
2021/12/29 08:57:36;;;;;;;2.40;1.10;;;12.50;99.90;;;;;;5073369;28;20232;-63
2021/12/29 09:00:06;;;;;;;2.87;1.10;;;12.50;99.90;;;;;;5073056;28;20238;-63
2021/12/29 09:02:32;;;;;;;2.33;0.90;;;12.50;99.90;;;;;;5073341;28;20212;-63
2021/12/29 09:04:59;;;;;;;1.17;0.80;;;12.50;99.90;;;;;;5072992;28;20609;-63
2021/12/29 09:07:26;;;;;;;3.80;0.90;;;12.40;99.90;;;;;;5072811;28;20240;-63
2021/12/29 09:09:54;;;;;;;2.40;1.30;;;12.40;99.90;;;;;;5072929;28;20208;-63
2021/12/29 09:12:20;;;;;;;3.70;1.77;;;12.30;99.90;;;;;;5073649;28;20205;-62
2021/12/29 09:14:48;;;;;;;2.67;1.00;;;12.40;99.90;;;;;;5072958;28;20235;-62
2021/12/29 09:17:15;;;;;;;2.27;1.23;;;12.40;99.90;;;;;;5072786;28;20316;-62
2021/12/29 09:19:44;;;;;;;2.60;1.50;;;12.40;99.90;;;;;;5072232;28;20200;-62
2021/12/29 09:22:11;;;;;;;3.83;0.80;;;12.50;99.90;;;;;;5072387;28;20201;-62
2021/12/29 09:24:38;;;;;;;2.23;0.93;;;12.60;99.90;;;;;;5072600;28;20261;-62
2021/12/29 09:27:06;;;;;;;3.60;1.10;;;12.60;99.90;;;;;;5072250;28;20208;-64
2021/12/29 09:29:34;;;;;;;2.00;0.60;;;12.70;99.90;;;;;;5072243;28;20582;-64
2021/12/29 09:32:00;;;;;;;2.67;0.82;;;12.70;99.90;;;;;;5068376;28;20442;-65
2021/12/29 09:34:27;;;;;;;1.07;0.80;;;12.60;99.90;;;;;;5071923;28;20628;-61
2021/12/29 09:36:54;;;;;;;1.40;0.63;;;12.60;99.90;;;;;;5071973;28;20278;-60
2021/12/29 09:39:21;;;;;;;2.97;0.80;;;12.70;99.90;;;;;;5072091;28;20219;-58
2021/12/29 09:41:47;;;;;;;4.30;1.30;;;12.60;99.90;;;;;;5072375;28;20205;-62
2021/12/29 09:44:15;;;;;;;4.03;1.17;;;12.60;99.90;;;;;;5072154;28;20207;-61
2021/12/29 09:46:42;;;;;;;1.23;0.87;;;12.60;99.90;;;;;;5072126;28;20668;-62
2021/12/29 09:49:10;;;;;;;3.30;1.30;;;12.50;99.90;;;;;;5071647;28;20668;-62
2021/12/29 09:51:36;;;;;;;2.90;1.50;;;12.40;99.90;;;;;;5072205;28;20261;-60
2021/12/29 09:54:03;;;;;;;3.33;1.60;;;12.50;99.90;;;;;;5072222;28;20262;-62
2021/12/29 09:56:30;;;;;;;4.23;1.50;;;12.50;99.90;;;;;;5072014;28;20229;-63
2021/12/29 09:58:59;;;;;;;2.20;1.03;;;12.50;99.90;;;;;;5071815;28;20225;-63
2021/12/29 10:01:27;;;;;;;3.43;1.13;;;12.60;99.90;;;;;;5072201;28;20205;-62
2021/12/29 10:03:54;;;;;;;3.00;1.20;;;12.70;99.90;;;;;;5071926;28;20201;-62
2021/12/29 10:06:21;;;;;;;3.77;1.40;;;12.80;99.90;;;;;;5072029;28;20197;-62
2021/12/29 10:08:50;;;;;;;2.80;1.40;;;12.90;99.90;;;;;;5071720;28;20225;-62
2021/12/29 10:11:19;;;;;;;3.53;1.40;;;13.10;99.90;;;;;;5071989;28;20657;-63
2021/12/29 10:13:47;;;;;;;2.70;1.43;;;13.30;99.90;;;;;;5071708;28;20201;-62
2021/12/29 10:16:16;;;;;;;4.63;1.63;;;13.40;99.90;;;;;;5071676;28;20231;-63
2021/12/29 10:18:48;;;;;;;3.67;1.70;;;13.50;99.90;;;;;;5071645;28;20221;-62
2021/12/29 10:21:16;;;;;;;4.23;1.80;;;13.60;99.90;;;;;;5072316;28;20205;-63
2021/12/29 10:23:45;;;;;;;3.17;1.47;;;13.60;99.90;;;;;;5075173;28;20263;-62
2021/12/29 10:26:14;;;;;;;4.33;1.60;;;13.60;99.90;;;;;;5076004;28;20205;-63
2021/12/29 10:28:42;;;;;;;4.53;1.20;;;13.60;99.90;;;;;;5075387;28;20782;-63
2021/12/29 10:31:13;;;;;;;4.57;1.53;;;13.70;99.90;;;;;;5075875;28;20219;-63
2021/12/29 10:33:42;;;;;;;3.10;1.47;;;13.70;99.90;;;;;;5075829;28;20220;-64
2021/12/29 10:36:20;;;;;;;6.23;2.50;;;13.80;99.90;;;;;;5075850;28;20274;-63
2021/12/29 10:38:50;;;;;;;5.37;1.87;;;13.80;99.90;;;;;;5075039;28;20259;-64
2021/12/29 10:41:17;;;;;;;4.00;1.20;;;13.90;99.90;;;;;;5075523;28;20266;-64
2021/12/29 10:43:51;;;;;;;3.63;1.63;;;13.80;99.90;;;;;;5075634;28;20212;-63
2021/12/29 10:46:19;;;;;;;4.13;1.60;;;14.00;99.90;;;;;;5075718;28;20273;-63
2021/12/29 10:48:48;;;;;;;3.07;1.40;;;14.00;99.90;;;;;;5074978;28;20716;-63
2021/12/29 10:51:17;;;;;;;6.33;2.30;;;14.10;99.90;;;;;;5075616;28;20236;-63
2021/12/29 10:53:44;;;;;;;5.20;2.37;;;14.20;99.90;;;;;;5075172;28;20205;-64
2021/12/29 10:56:21;;;;;;;3.17;1.47;;;14.20;99.90;;;;;;5075456;28;20302;-63
2021/12/29 10:58:48;;;;;;;4.57;1.30;;;14.30;99.90;;;;;;5075183;28;20221;-63
2021/12/29 11:01:16;;;;;;;2.47;1.27;;;14.30;99.90;;;;;;5075506;28;20204;-63
2021/12/29 11:03:45;;;;;;;3.30;1.43;;;14.40;99.90;;;;;;5074937;28;20292;-63
2021/12/29 11:06:15;;;;;;;15.63;9.97;;;14.50;99.90;;;;;;5074918;28;20240;-63
2021/12/29 11:08:49;;;;;;;3.63;2.20;;;14.50;99.90;;;;;;5074980;28;20236;-63
2021/12/29 11:11:19;;;;;;;2.80;1.50;;;14.50;99.90;;;;;;5075062;28;20212;-64
2021/12/29 11:13:46;;;;;;;3.47;1.37;;;14.50;99.90;;;;;;5075203;28;20254;-63
2021/12/29 11:16:13;;;;;;;3.73;1.53;;;14.50;99.90;;;;;;5074601;28;20221;-63
2021/12/29 11:18:44;;;;;;;4.67;1.40;;;14.40;99.90;;;;;;5074384;28;20696;-64
2021/12/29 11:21:11;;;;;;;3.33;1.30;;;14.40;99.90;;;;;;5074749;28;20224;-64
2021/12/29 11:23:41;;;;;;;4.30;1.90;;;14.40;99.90;;;;;;5074957;28;20208;-64
2021/12/29 11:26:13;;;;;;;3.73;1.27;;;14.40;99.90;;;;;;5074863;28;20311;-65
2021/12/29 11:28:40;;;;;;;6.10;1.87;;;14.40;99.90;;;;;;5074526;28;20240;-64
2021/12/29 11:31:11;;;;;;;4.37;1.77;;;14.20;99.90;;;;;;5074639;28;20212;-65
2021/12/29 11:33:38;;;;;;;3.73;1.60;;;14.20;99.90;;;;;;5074626;28;20262;-63
2021/12/29 11:36:05;;;;;;;3.90;1.90;;;14.30;99.90;;;;;;5074133;28;20774;-65
2021/12/29 11:38:34;;;;;;;2.53;1.13;;;14.30;99.90;;;;;;5073810;28;20732;-64
2021/12/29 11:41:03;;;;;;;3.63;1.70;;;14.20;99.90;;;;;;5074204;28;20445;-63
2021/12/29 11:43:32;;;;;;;4.07;1.60;;;14.20;99.90;;;;;;5074182;28;20209;-64
2021/12/29 11:45:59;;;;;;;4.47;1.30;;;14.20;99.90;;;;;;5074178;28;20649;-63
2021/12/29 11:48:26;;;;;;;1.83;1.20;;;14.10;99.90;;;;;;5074115;28;20245;-64
2021/12/29 11:50:56;;;;;;;4.73;2.50;;;14.20;99.90;;;;;;5074403;28;20224;-62
2021/12/29 11:53:39;;;;;;;5.20;1.10;;;14.20;99.90;;;;;;5074232;28;20212;-63
2021/12/29 11:56:08;;;;;;;2.87;1.50;;;14.20;99.90;;;;;;5074041;28;20319;-61
2021/12/29 11:58:41;;;;;;;2.67;1.63;;;14.30;99.90;;;;;;5073750;28;20316;-63
2021/12/29 12:01:10;;;;;;;2.83;1.40;;;14.30;99.90;;;;;;5071996;28;20918;-64
2021/12/29 12:03:44;;;;;;;2.20;1.33;;;14.40;99.90;;;;;;5073637;28;20213;-61
2021/12/29 12:06:25;;;;;;;2.27;1.20;;;14.50;99.90;;;;;;5073851;28;20291;-62
2021/12/29 12:09:06;;;;;;;1.93;0.97;;;14.50;99.90;;;;;;5073460;28;20233;-61
2021/12/29 12:11:35;;;;;;;4.50;2.70;;;14.40;99.90;;;;;;5073683;28;20208;-61
2021/12/29 12:14:03;;;;;;;2.47;1.20;;;14.30;99.90;;;;;;5073693;28;20255;-61
2021/12/29 12:16:30;;;;;;;2.60;1.10;;;14.30;99.90;;;;;;5073613;28;20306;-61
2021/12/29 12:18:58;;;;;;;3.50;1.20;;;14.10;99.90;;;;;;5073369;28;20229;-61
2021/12/29 12:21:29;;;;;;;4.93;1.87;;;14.00;99.90;;;;;;5073508;28;20215;-61
2021/12/29 12:24:10;;;;;;;2.90;1.10;;;13.90;99.90;;;;;;5073680;28;20209;-61
2021/12/29 12:26:47;;;;;;;6.30;2.07;;;13.90;99.90;;;;;;5073511;28;20205;-60
2021/12/29 12:29:15;;;;;;;3.13;1.20;;;13.80;99.90;;;;;;5073191;28;20277;-63
2021/12/29 12:31:42;;;;;;;6.80;1.23;;;13.80;99.90;;;;;;5073198;28;20216;-63
2021/12/29 12:34:11;;;;;;;1.90;0.87;;;13.80;99.90;;;;;;5073457;28;20622;-61
2021/12/29 12:36:39;;;;;;;2.00;0.90;;;13.80;99.90;;;;;;5073296;28;20723;-62
2021/12/29 12:39:08;;;;;;;2.73;1.20;;;13.70;99.90;;;;;;5073432;28;20229;-61
2021/12/29 12:41:38;;;;;;;3.50;1.00;;;13.60;99.90;;;;;;5073537;28;20205;-61
2021/12/29 12:44:06;;;;;;;2.43;1.10;;;13.60;99.90;;;;;;5073364;28;20204;-62
2021/12/29 12:46:36;;;;;;;4.03;1.53;;;13.60;99.90;;;;;;5072351;28;20208;-62
2021/12/29 12:49:14;;;;;;;5.43;1.50;;;13.70;99.90;;;;;;5072977;28;20232;-60
2021/12/29 12:51:41;;;;;;;3.20;1.50;;;13.80;99.90;;;;;;5072869;28;20748;-60
2021/12/29 12:54:17;;;;;;;2.73;1.40;;;13.90;99.90;;;;;;5072800;28;20205;-60
2021/12/29 12:56:46;;;;;;;4.50;1.40;;;13.90;99.90;;;;;;5072606;28;20320;-61